sensor_id;sensor_type;location;lat;lon;timestamp;P1;durP1;ratioP1;P2;durP2;ratioP2
36443;SDS011;24692;45.642;13.806;2023-05-10T00:00:53;4.97;;;3.57;;
36443;SDS011;24692;45.642;13.806;2023-05-10T00:03:19;4.20;;;3.43;;
36443;SDS011;24692;45.642;13.806;2023-05-10T00:05:44;3.97;;;3.57;;
36443;SDS011;24692;45.642;13.806;2023-05-10T00:08:10;3.90;;;3.33;;
36443;SDS011;24692;45.642;13.806;2023-05-10T00:10:36;4.80;;;3.60;;
36443;SDS011;24692;45.642;13.806;2023-05-10T00:13:02;3.87;;;3.30;;
36443;SDS011;24692;45.642;13.806;2023-05-10T00:15:28;4.23;;;3.27;;
36443;SDS011;24692;45.642;13.806;2023-05-10T00:17:55;4.80;;;3.30;;
36443;SDS011;24692;45.642;13.806;2023-05-10T00:20:21;5.07;;;3.00;;
36443;SDS011;24692;45.642;13.806;2023-05-10T00:22:47;5.23;;;3.53;;
36443;SDS011;24692;45.642;13.806;2023-05-10T00:25:13;5.20;;;3.33;;
36443;SDS011;24692;45.642;13.806;2023-05-10T00:27:38;4.13;;;3.33;;
36443;SDS011;24692;45.642;13.806;2023-05-10T00:30:04;5.07;;;3.30;;
36443;SDS011;24692;45.642;13.806;2023-05-10T00:32:31;3.80;;;3.40;;
36443;SDS011;24692;45.642;13.806;2023-05-10T00:34:56;4.10;;;3.30;;
36443;SDS011;24692;45.642;13.806;2023-05-10T00:37:22;5.23;;;3.60;;
36443;SDS011;24692;45.642;13.806;2023-05-10T00:39:48;4.63;;;3.30;;
36443;SDS011;24692;45.642;13.806;2023-05-10T00:42:13;3.93;;;3.30;;
36443;SDS011;24692;45.642;13.806;2023-05-10T00:44:39;5.60;;;3.33;;
36443;SDS011;24692;45.642;13.806;2023-05-10T00:47:05;6.57;;;3.70;;
36443;SDS011;24692;45.642;13.806;2023-05-10T00:49:31;4.07;;;3.50;;
36443;SDS011;24692;45.642;13.806;2023-05-10T00:51:56;3.80;;;3.40;;
36443;SDS011;24692;45.642;13.806;2023-05-10T00:54:22;4.30;;;3.33;;
36443;SDS011;24692;45.642;13.806;2023-05-10T00:56:48;5.07;;;3.40;;
36443;SDS011;24692;45.642;13.806;2023-05-10T00:59:15;5.17;;;3.80;;
36443;SDS011;24692;45.642;13.806;2023-05-10T01:01:42;6.07;;;3.53;;
36443;SDS011;24692;45.642;13.806;2023-05-10T01:04:08;4.10;;;3.50;;
36443;SDS011;24692;45.642;13.806;2023-05-10T01:06:36;4.03;;;3.57;;
36443;SDS011;24692;45.642;13.806;2023-05-10T01:09:01;6.17;;;3.70;;
36443;SDS011;24692;45.642;13.806;2023-05-10T01:11:27;6.10;;;4.00;;
36443;SDS011;24692;45.642;13.806;2023-05-10T01:13:55;5.63;;;3.17;;
36443;SDS011;24692;45.642;13.806;2023-05-10T01:16:22;4.43;;;3.60;;
36443;SDS011;24692;45.642;13.806;2023-05-10T01:18:49;4.60;;;3.50;;
36443;SDS011;24692;45.642;13.806;2023-05-10T01:21:19;4.27;;;3.70;;
36443;SDS011;24692;45.642;13.806;2023-05-10T01:32:24;6.00;;;3.60;;
36443;SDS011;24692;45.642;13.806;2023-05-10T01:40:08;4.37;;;3.67;;
36443;SDS011;24692;45.642;13.806;2023-05-10T01:42:49;8.07;;;4.07;;
36443;SDS011;24692;45.642;13.806;2023-05-10T01:45:20;5.90;;;3.73;;
36443;SDS011;24692;45.642;13.806;2023-05-10T01:48:02;5.10;;;3.80;;
36443;SDS011;24692;45.642;13.806;2023-05-10T01:50:31;4.33;;;3.57;;
36443;SDS011;24692;45.642;13.806;2023-05-10T01:52:59;3.60;;;3.30;;
36443;SDS011;24692;45.642;13.806;2023-05-10T01:55:28;4.17;;;3.40;;
36443;SDS011;24692;45.642;13.806;2023-05-10T01:58:02;6.23;;;3.83;;
36443;SDS011;24692;45.642;13.806;2023-05-10T02:00:33;4.97;;;3.63;;
36443;SDS011;24692;45.642;13.806;2023-05-10T02:03:01;5.03;;;3.50;;
36443;SDS011;24692;45.642;13.806;2023-05-10T02:05:31;4.10;;;3.70;;
36443;SDS011;24692;45.642;13.806;2023-05-10T02:07:58;4.90;;;3.73;;
36443;SDS011;24692;45.642;13.806;2023-05-10T02:10:26;5.90;;;3.53;;
36443;SDS011;24692;45.642;13.806;2023-05-10T02:12:53;4.63;;;3.60;;
36443;SDS011;24692;45.642;13.806;2023-05-10T02:15:22;6.40;;;4.07;;
36443;SDS011;24692;45.642;13.806;2023-05-10T02:17:50;5.33;;;3.80;;
36443;SDS011;24692;45.642;13.806;2023-05-10T02:20:17;5.57;;;3.90;;
36443;SDS011;24692;45.642;13.806;2023-05-10T02:22:44;5.53;;;3.80;;
36443;SDS011;24692;45.642;13.806;2023-05-10T02:25:12;6.17;;;4.30;;
36443;SDS011;24692;45.642;13.806;2023-05-10T02:27:38;4.77;;;3.60;;
36443;SDS011;24692;45.642;13.806;2023-05-10T02:30:06;7.33;;;3.80;;
36443;SDS011;24692;45.642;13.806;2023-05-10T02:32:33;6.53;;;3.90;;
36443;SDS011;24692;45.642;13.806;2023-05-10T02:34:59;4.23;;;3.73;;
36443;SDS011;24692;45.642;13.806;2023-05-10T02:37:28;7.90;;;4.00;;
36443;SDS011;24692;45.642;13.806;2023-05-10T02:39:55;4.70;;;3.90;;
36443;SDS011;24692;45.642;13.806;2023-05-10T02:42:23;5.73;;;3.70;;
36443;SDS011;24692;45.642;13.806;2023-05-10T02:44:52;6.70;;;4.10;;
36443;SDS011;24692;45.642;13.806;2023-05-10T02:47:21;6.13;;;4.00;;
36443;SDS011;24692;45.642;13.806;2023-05-10T02:49:49;4.20;;;3.80;;
36443;SDS011;24692;45.642;13.806;2023-05-10T02:52:16;4.70;;;3.83;;
36443;SDS011;24692;45.642;13.806;2023-05-10T02:54:48;4.97;;;4.37;;
36443;SDS011;24692;45.642;13.806;2023-05-10T02:57:17;6.07;;;4.10;;
36443;SDS011;24692;45.642;13.806;2023-05-10T02:59:53;5.33;;;4.07;;
36443;SDS011;24692;45.642;13.806;2023-05-10T03:02:20;5.70;;;4.10;;
36443;SDS011;24692;45.642;13.806;2023-05-10T03:04:46;6.10;;;4.40;;
36443;SDS011;24692;45.642;13.806;2023-05-10T03:07:12;4.60;;;4.10;;
36443;SDS011;24692;45.642;13.806;2023-05-10T03:09:38;4.37;;;3.97;;
36443;SDS011;24692;45.642;13.806;2023-05-10T03:12:07;6.20;;;4.20;;
36443;SDS011;24692;45.642;13.806;2023-05-10T03:20:08;5.70;;;4.20;;
36443;SDS011;24692;45.642;13.806;2023-05-10T03:23:20;4.70;;;4.20;;
36443;SDS011;24692;45.642;13.806;2023-05-10T03:25:27;4.87;;;4.17;;
36443;SDS011;24692;45.642;13.806;2023-05-10T03:27:54;6.03;;;4.73;;
36443;SDS011;24692;45.642;13.806;2023-05-10T03:30:22;4.57;;;4.10;;
36443;SDS011;24692;45.642;13.806;2023-05-10T03:32:49;7.23;;;4.03;;
36443;SDS011;24692;45.642;13.806;2023-05-10T03:35:15;4.63;;;4.13;;
36443;SDS011;24692;45.642;13.806;2023-05-10T03:37:40;8.10;;;4.30;;
36443;SDS011;24692;45.642;13.806;2023-05-10T03:40:06;5.93;;;4.70;;
36443;SDS011;24692;45.642;13.806;2023-05-10T03:42:32;8.37;;;4.70;;
36443;SDS011;24692;45.642;13.806;2023-05-10T03:44:58;5.20;;;4.40;;
36443;SDS011;24692;45.642;13.806;2023-05-10T03:47:24;7.97;;;4.50;;
36443;SDS011;24692;45.642;13.806;2023-05-10T03:49:50;6.30;;;4.43;;
36443;SDS011;24692;45.642;13.806;2023-05-10T03:52:15;7.93;;;4.50;;
36443;SDS011;24692;45.642;13.806;2023-05-10T03:54:41;5.50;;;4.80;;
36443;SDS011;24692;45.642;13.806;2023-05-10T03:57:07;5.17;;;4.33;;
36443;SDS011;24692;45.642;13.806;2023-05-10T03:59:32;5.23;;;4.30;;
36443;SDS011;24692;45.642;13.806;2023-05-10T04:01:58;5.10;;;4.50;;
36443;SDS011;24692;45.642;13.806;2023-05-10T04:04:23;6.40;;;4.53;;
36443;SDS011;24692;45.642;13.806;2023-05-10T04:06:49;4.90;;;4.20;;
36443;SDS011;24692;45.642;13.806;2023-05-10T04:09:15;4.93;;;4.37;;
36443;SDS011;24692;45.642;13.806;2023-05-10T04:11:42;5.60;;;4.17;;
36443;SDS011;24692;45.642;13.806;2023-05-10T04:14:07;6.80;;;4.43;;
36443;SDS011;24692;45.642;13.806;2023-05-10T04:16:33;5.93;;;4.17;;
36443;SDS011;24692;45.642;13.806;2023-05-10T04:18:59;6.50;;;4.40;;
36443;SDS011;24692;45.642;13.806;2023-05-10T04:21:25;5.13;;;4.23;;
36443;SDS011;24692;45.642;13.806;2023-05-10T04:23:51;5.90;;;4.57;;
36443;SDS011;24692;45.642;13.806;2023-05-10T04:26:17;5.00;;;4.50;;
36443;SDS011;24692;45.642;13.806;2023-05-10T04:28:42;5.47;;;4.20;;
36443;SDS011;24692;45.642;13.806;2023-05-10T04:31:08;8.13;;;4.40;;
36443;SDS011;24692;45.642;13.806;2023-05-10T04:33:35;5.13;;;4.17;;
36443;SDS011;24692;45.642;13.806;2023-05-10T04:36:01;7.67;;;4.57;;
36443;SDS011;24692;45.642;13.806;2023-05-10T04:38:28;6.00;;;4.50;;
36443;SDS011;24692;45.642;13.806;2023-05-10T04:41:02;5.57;;;4.30;;
36443;SDS011;24692;45.642;13.806;2023-05-10T04:43:32;5.07;;;4.40;;
36443;SDS011;24692;45.642;13.806;2023-05-10T04:45:58;7.20;;;4.17;;
36443;SDS011;24692;45.642;13.806;2023-05-10T04:48:23;5.80;;;4.30;;
36443;SDS011;24692;45.642;13.806;2023-05-10T04:50:49;5.07;;;4.40;;
36443;SDS011;24692;45.642;13.806;2023-05-10T04:53:15;4.93;;;4.03;;
36443;SDS011;24692;45.642;13.806;2023-05-10T04:55:41;5.10;;;4.13;;
36443;SDS011;24692;45.642;13.806;2023-05-10T04:58:06;4.37;;;3.97;;
36443;SDS011;24692;45.642;13.806;2023-05-10T05:00:32;5.47;;;4.30;;
36443;SDS011;24692;45.642;13.806;2023-05-10T05:02:58;7.17;;;4.60;;
36443;SDS011;24692;45.642;13.806;2023-05-10T05:05:24;4.57;;;4.10;;
36443;SDS011;24692;45.642;13.806;2023-05-10T05:07:50;7.17;;;4.30;;
36443;SDS011;24692;45.642;13.806;2023-05-10T05:10:15;5.90;;;4.60;;
36443;SDS011;24692;45.642;13.806;2023-05-10T05:12:41;6.23;;;4.90;;
36443;SDS011;24692;45.642;13.806;2023-05-10T05:15:07;5.40;;;4.63;;
36443;SDS011;24692;45.642;13.806;2023-05-10T05:17:36;7.73;;;4.33;;
36443;SDS011;24692;45.642;13.806;2023-05-10T05:20:02;6.43;;;4.20;;
36443;SDS011;24692;45.642;13.806;2023-05-10T05:22:28;4.77;;;4.27;;
36443;SDS011;24692;45.642;13.806;2023-05-10T05:24:54;4.87;;;4.00;;
36443;SDS011;24692;45.642;13.806;2023-05-10T05:27:20;5.07;;;4.57;;
36443;SDS011;24692;45.642;13.806;2023-05-10T05:29:49;6.27;;;4.17;;
36443;SDS011;24692;45.642;13.806;2023-05-10T05:32:18;8.43;;;5.17;;
36443;SDS011;24692;45.642;13.806;2023-05-10T05:34:44;5.80;;;4.20;;
36443;SDS011;24692;45.642;13.806;2023-05-10T05:37:17;4.93;;;4.00;;
36443;SDS011;24692;45.642;13.806;2023-05-10T05:39:43;6.60;;;4.57;;
36443;SDS011;24692;45.642;13.806;2023-05-10T05:42:10;8.30;;;4.50;;
36443;SDS011;24692;45.642;13.806;2023-05-10T05:44:36;6.40;;;4.60;;
36443;SDS011;24692;45.642;13.806;2023-05-10T05:47:01;4.73;;;4.27;;
36443;SDS011;24692;45.642;13.806;2023-05-10T05:49:27;6.90;;;4.47;;
36443;SDS011;24692;45.642;13.806;2023-05-10T05:51:53;7.07;;;4.80;;
36443;SDS011;24692;45.642;13.806;2023-05-10T05:54:19;9.00;;;4.57;;
36443;SDS011;24692;45.642;13.806;2023-05-10T05:56:45;6.13;;;4.17;;
36443;SDS011;24692;45.642;13.806;2023-05-10T05:59:11;7.60;;;4.40;;
36443;SDS011;24692;45.642;13.806;2023-05-10T06:01:37;8.70;;;5.10;;
36443;SDS011;24692;45.642;13.806;2023-05-10T06:04:02;8.57;;;4.90;;
36443;SDS011;24692;45.642;13.806;2023-05-10T06:06:29;7.27;;;4.63;;
36443;SDS011;24692;45.642;13.806;2023-05-10T06:08:57;5.93;;;4.53;;
36443;SDS011;24692;45.642;13.806;2023-05-10T06:11:23;6.33;;;4.50;;
36443;SDS011;24692;45.642;13.806;2023-05-10T06:13:50;7.00;;;4.47;;
36443;SDS011;24692;45.642;13.806;2023-05-10T06:16:16;6.67;;;4.20;;
36443;SDS011;24692;45.642;13.806;2023-05-10T06:18:42;7.97;;;4.90;;
36443;SDS011;24692;45.642;13.806;2023-05-10T06:21:08;7.77;;;5.10;;
36443;SDS011;24692;45.642;13.806;2023-05-10T06:23:34;7.23;;;4.30;;
36443;SDS011;24692;45.642;13.806;2023-05-10T06:26:01;8.23;;;4.73;;
36443;SDS011;24692;45.642;13.806;2023-05-10T06:28:27;7.43;;;4.40;;
36443;SDS011;24692;45.642;13.806;2023-05-10T06:30:52;6.27;;;4.87;;
36443;SDS011;24692;45.642;13.806;2023-05-10T06:33:18;6.73;;;4.80;;
36443;SDS011;24692;45.642;13.806;2023-05-10T06:35:43;6.43;;;4.57;;
36443;SDS011;24692;45.642;13.806;2023-05-10T06:38:09;5.77;;;4.43;;
36443;SDS011;24692;45.642;13.806;2023-05-10T06:40:35;7.77;;;4.37;;
36443;SDS011;24692;45.642;13.806;2023-05-10T06:43:01;7.43;;;4.70;;
36443;SDS011;24692;45.642;13.806;2023-05-10T06:45:26;4.57;;;4.13;;
36443;SDS011;24692;45.642;13.806;2023-05-10T06:47:52;6.30;;;4.70;;
36443;SDS011;24692;45.642;13.806;2023-05-10T06:50:18;6.70;;;4.47;;
36443;SDS011;24692;45.642;13.806;2023-05-10T06:52:43;7.50;;;4.43;;
36443;SDS011;24692;45.642;13.806;2023-05-10T06:55:09;7.43;;;4.50;;
36443;SDS011;24692;45.642;13.806;2023-05-10T06:57:35;5.57;;;4.70;;
36443;SDS011;24692;45.642;13.806;2023-05-10T07:00:01;7.27;;;4.70;;
36443;SDS011;24692;45.642;13.806;2023-05-10T07:02:29;6.10;;;4.67;;
36443;SDS011;24692;45.642;13.806;2023-05-10T07:04:54;9.83;;;5.00;;
36443;SDS011;24692;45.642;13.806;2023-05-10T07:07:20;7.87;;;4.90;;
36443;SDS011;24692;45.642;13.806;2023-05-10T07:09:46;8.37;;;5.20;;
36443;SDS011;24692;45.642;13.806;2023-05-10T07:12:11;6.20;;;4.40;;
36443;SDS011;24692;45.642;13.806;2023-05-10T07:14:37;7.43;;;4.83;;
36443;SDS011;24692;45.642;13.806;2023-05-10T07:17:03;12.87;;;4.73;;
36443;SDS011;24692;45.642;13.806;2023-05-10T07:19:31;9.27;;;5.20;;
36443;SDS011;24692;45.642;13.806;2023-05-10T07:21:57;6.17;;;4.43;;
36443;SDS011;24692;45.642;13.806;2023-05-10T07:24:23;7.93;;;4.60;;
36443;SDS011;24692;45.642;13.806;2023-05-10T07:26:49;11.87;;;5.33;;
36443;SDS011;24692;45.642;13.806;2023-05-10T07:29:15;5.50;;;4.67;;
36443;SDS011;24692;45.642;13.806;2023-05-10T07:31:40;5.73;;;4.33;;
36443;SDS011;24692;45.642;13.806;2023-05-10T07:34:07;6.73;;;4.60;;
36443;SDS011;24692;45.642;13.806;2023-05-10T07:36:34;5.30;;;4.80;;
36443;SDS011;24692;45.642;13.806;2023-05-10T07:39:00;5.00;;;4.50;;
36443;SDS011;24692;45.642;13.806;2023-05-10T07:41:27;6.90;;;4.70;;
36443;SDS011;24692;45.642;13.806;2023-05-10T07:43:53;7.37;;;5.07;;
36443;SDS011;24692;45.642;13.806;2023-05-10T07:46:18;9.60;;;5.20;;
36443;SDS011;24692;45.642;13.806;2023-05-10T07:48:46;5.93;;;4.70;;
36443;SDS011;24692;45.642;13.806;2023-05-10T07:51:12;6.43;;;5.30;;
36443;SDS011;24692;45.642;13.806;2023-05-10T07:53:38;10.47;;;5.03;;
36443;SDS011;24692;45.642;13.806;2023-05-10T07:56:19;8.43;;;5.30;;
36443;SDS011;24692;45.642;13.806;2023-05-10T07:58:50;10.27;;;5.10;;
36443;SDS011;24692;45.642;13.806;2023-05-10T08:01:16;9.27;;;5.23;;
36443;SDS011;24692;45.642;13.806;2023-05-10T08:03:42;10.43;;;5.37;;
36443;SDS011;24692;45.642;13.806;2023-05-10T08:06:08;14.70;;;6.10;;
36443;SDS011;24692;45.642;13.806;2023-05-10T08:08:34;8.00;;;4.80;;
36443;SDS011;24692;45.642;13.806;2023-05-10T08:10:59;9.03;;;5.20;;
36443;SDS011;24692;45.642;13.806;2023-05-10T08:13:28;8.87;;;5.00;;
36443;SDS011;24692;45.642;13.806;2023-05-10T08:15:54;10.90;;;6.10;;
36443;SDS011;24692;45.642;13.806;2023-05-10T08:18:21;6.23;;;5.20;;
36443;SDS011;24692;45.642;13.806;2023-05-10T08:20:48;9.67;;;5.43;;
36443;SDS011;24692;45.642;13.806;2023-05-10T08:23:14;11.20;;;5.70;;
36443;SDS011;24692;45.642;13.806;2023-05-10T08:25:40;7.63;;;5.10;;
36443;SDS011;24692;45.642;13.806;2023-05-10T08:28:06;15.53;;;5.33;;
36443;SDS011;24692;45.642;13.806;2023-05-10T08:30:31;11.80;;;5.77;;
36443;SDS011;24692;45.642;13.806;2023-05-10T08:32:57;20.13;;;5.77;;
36443;SDS011;24692;45.642;13.806;2023-05-10T08:35:23;13.10;;;6.27;;
36443;SDS011;24692;45.642;13.806;2023-05-10T08:37:50;12.43;;;5.60;;
36443;SDS011;24692;45.642;13.806;2023-05-10T08:40:16;11.63;;;5.97;;
36443;SDS011;24692;45.642;13.806;2023-05-10T08:42:48;9.33;;;5.53;;
36443;SDS011;24692;45.642;13.806;2023-05-10T08:45:45;12.00;;;6.03;;
36443;SDS011;24692;45.642;13.806;2023-05-10T08:48:11;12.13;;;5.90;;
36443;SDS011;24692;45.642;13.806;2023-05-10T08:50:38;10.80;;;6.20;;
36443;SDS011;24692;45.642;13.806;2023-05-10T08:53:11;11.00;;;6.50;;
36443;SDS011;24692;45.642;13.806;2023-05-10T08:55:38;10.33;;;6.43;;
36443;SDS011;24692;45.642;13.806;2023-05-10T08:58:07;8.17;;;5.63;;
36443;SDS011;24692;45.642;13.806;2023-05-10T09:00:33;11.53;;;6.13;;
36443;SDS011;24692;45.642;13.806;2023-05-10T09:03:00;14.43;;;6.37;;
36443;SDS011;24692;45.642;13.806;2023-05-10T09:05:26;12.80;;;6.20;;
36443;SDS011;24692;45.642;13.806;2023-05-10T09:07:52;10.87;;;6.10;;
36443;SDS011;24692;45.642;13.806;2023-05-10T09:10:18;11.90;;;6.07;;
36443;SDS011;24692;45.642;13.806;2023-05-10T09:12:45;13.37;;;6.47;;
36443;SDS011;24692;45.642;13.806;2023-05-10T09:15:11;13.43;;;6.43;;
36443;SDS011;24692;45.642;13.806;2023-05-10T09:17:40;13.63;;;6.50;;
36443;SDS011;24692;45.642;13.806;2023-05-10T09:20:07;10.43;;;6.33;;
36443;SDS011;24692;45.642;13.806;2023-05-10T09:22:33;9.90;;;6.67;;
36443;SDS011;24692;45.642;13.806;2023-05-10T09:27:39;13.43;;;6.40;;
36443;SDS011;24692;45.642;13.806;2023-05-10T09:30:06;16.33;;;6.97;;
36443;SDS011;24692;45.642;13.806;2023-05-10T09:32:45;23.57;;;6.57;;
36443;SDS011;24692;45.642;13.806;2023-05-10T09:35:13;13.30;;;6.57;;
36443;SDS011;24692;45.642;13.806;2023-05-10T09:37:41;14.97;;;6.83;;
36443;SDS011;24692;45.642;13.806;2023-05-10T09:40:13;26.47;;;6.87;;
36443;SDS011;24692;45.642;13.806;2023-05-10T09:42:41;11.40;;;6.30;;
36443;SDS011;24692;45.642;13.806;2023-05-10T09:45:08;11.67;;;6.10;;
36443;SDS011;24692;45.642;13.806;2023-05-10T09:47:34;17.80;;;7.17;;
36443;SDS011;24692;45.642;13.806;2023-05-10T09:50:01;11.67;;;6.00;;
36443;SDS011;24692;45.642;13.806;2023-05-10T09:52:45;14.23;;;7.00;;
36443;SDS011;24692;45.642;13.806;2023-05-10T09:55:25;17.80;;;6.30;;
36443;SDS011;24692;45.642;13.806;2023-05-10T09:58:12;17.83;;;6.33;;
36443;SDS011;24692;45.642;13.806;2023-05-10T10:00:39;15.13;;;6.77;;
36443;SDS011;24692;45.642;13.806;2023-05-10T10:03:07;11.63;;;6.33;;
36443;SDS011;24692;45.642;13.806;2023-05-10T10:05:41;10.97;;;6.53;;
36443;SDS011;24692;45.642;13.806;2023-05-10T10:08:08;11.63;;;7.10;;
36443;SDS011;24692;45.642;13.806;2023-05-10T10:10:34;10.07;;;6.80;;
36443;SDS011;24692;45.642;13.806;2023-05-10T10:13:01;10.50;;;6.20;;
36443;SDS011;24692;45.642;13.806;2023-05-10T10:15:27;12.47;;;7.73;;
36443;SDS011;24692;45.642;13.806;2023-05-10T10:17:53;8.73;;;6.67;;
36443;SDS011;24692;45.642;13.806;2023-05-10T10:20:19;13.87;;;6.90;;
36443;SDS011;24692;45.642;13.806;2023-05-10T10:22:46;9.77;;;7.10;;
36443;SDS011;24692;45.642;13.806;2023-05-10T10:25:15;12.30;;;7.00;;
36443;SDS011;24692;45.642;13.806;2023-05-10T10:30:25;9.90;;;6.60;;
36443;SDS011;24692;45.642;13.806;2023-05-10T10:35:55;10.67;;;7.20;;
36443;SDS011;24692;45.642;13.806;2023-05-10T10:38:23;10.13;;;6.70;;
36443;SDS011;24692;45.642;13.806;2023-05-10T10:41:01;11.57;;;7.70;;
36443;SDS011;24692;45.642;13.806;2023-05-10T10:43:28;10.43;;;6.80;;
36443;SDS011;24692;45.642;13.806;2023-05-10T10:48:40;8.33;;;6.30;;
36443;SDS011;24692;45.642;13.806;2023-05-10T10:51:13;11.70;;;6.87;;
36443;SDS011;24692;45.642;13.806;2023-05-10T10:53:39;10.57;;;7.13;;
36443;SDS011;24692;45.642;13.806;2023-05-10T10:56:06;13.83;;;7.70;;
36443;SDS011;24692;45.642;13.806;2023-05-10T10:58:34;10.07;;;6.57;;
36443;SDS011;24692;45.642;13.806;2023-05-10T11:01:13;8.67;;;6.40;;
36443;SDS011;24692;45.642;13.806;2023-05-10T11:03:41;10.43;;;7.60;;
36443;SDS011;24692;45.642;13.806;2023-05-10T11:06:28;14.83;;;8.47;;
36443;SDS011;24692;45.642;13.806;2023-05-10T11:08:56;16.83;;;9.13;;
36443;SDS011;24692;45.642;13.806;2023-05-10T11:11:22;12.47;;;7.97;;
36443;SDS011;24692;45.642;13.806;2023-05-10T11:13:48;10.90;;;8.27;;
36443;SDS011;24692;45.642;13.806;2023-05-10T11:16:24;17.03;;;8.37;;
36443;SDS011;24692;45.642;13.806;2023-05-10T11:19:03;15.40;;;8.20;;
36443;SDS011;24692;45.642;13.806;2023-05-10T11:21:33;19.93;;;8.13;;
36443;SDS011;24692;45.642;13.806;2023-05-10T11:24:12;14.77;;;7.83;;
36443;SDS011;24692;45.642;13.806;2023-05-10T11:26:42;14.27;;;8.33;;
36443;SDS011;24692;45.642;13.806;2023-05-10T11:29:10;13.57;;;8.07;;
36443;SDS011;24692;45.642;13.806;2023-05-10T11:31:45;11.23;;;7.50;;
36443;SDS011;24692;45.642;13.806;2023-05-10T11:34:13;13.67;;;9.10;;
36443;SDS011;24692;45.642;13.806;2023-05-10T11:36:54;16.63;;;8.90;;
36443;SDS011;24692;45.642;13.806;2023-05-10T11:39:34;14.67;;;8.20;;
36443;SDS011;24692;45.642;13.806;2023-05-10T11:42:03;13.80;;;9.13;;
36443;SDS011;24692;45.642;13.806;2023-05-10T11:44:31;12.13;;;8.70;;
36443;SDS011;24692;45.642;13.806;2023-05-10T11:47:05;11.47;;;8.07;;
36443;SDS011;24692;45.642;13.806;2023-05-10T11:49:31;10.57;;;7.73;;
36443;SDS011;24692;45.642;13.806;2023-05-10T11:52:05;12.73;;;8.53;;
36443;SDS011;24692;45.642;13.806;2023-05-10T11:54:33;12.73;;;7.47;;
36443;SDS011;24692;45.642;13.806;2023-05-10T11:57:19;9.60;;;6.83;;
36443;SDS011;24692;45.642;13.806;2023-05-10T11:59:46;14.07;;;7.97;;
36443;SDS011;24692;45.642;13.806;2023-05-10T12:02:15;14.97;;;8.27;;
36443;SDS011;24692;45.642;13.806;2023-05-10T12:04:42;12.00;;;7.87;;
36443;SDS011;24692;45.642;13.806;2023-05-10T12:07:10;15.50;;;8.07;;
36443;SDS011;24692;45.642;13.806;2023-05-10T12:09:37;11.63;;;7.70;;
36443;SDS011;24692;45.642;13.806;2023-05-10T12:12:08;15.97;;;8.60;;
36443;SDS011;24692;45.642;13.806;2023-05-10T12:14:37;11.77;;;7.80;;
36443;SDS011;24692;45.642;13.806;2023-05-10T12:17:04;11.93;;;7.73;;
36443;SDS011;24692;45.642;13.806;2023-05-10T12:19:39;11.87;;;7.47;;
36443;SDS011;24692;45.642;13.806;2023-05-10T12:22:06;14.90;;;7.90;;
36443;SDS011;24692;45.642;13.806;2023-05-10T12:24:36;10.20;;;7.27;;
36443;SDS011;24692;45.642;13.806;2023-05-10T12:27:05;13.57;;;8.60;;
36443;SDS011;24692;45.642;13.806;2023-05-10T12:29:37;16.07;;;7.83;;
36443;SDS011;24692;45.642;13.806;2023-05-10T12:32:09;11.17;;;7.77;;
36443;SDS011;24692;45.642;13.806;2023-05-10T12:34:35;10.90;;;8.13;;
36443;SDS011;24692;45.642;13.806;2023-05-10T12:37:04;18.37;;;8.90;;
36443;SDS011;24692;45.642;13.806;2023-05-10T12:39:40;9.33;;;7.60;;
36443;SDS011;24692;45.642;13.806;2023-05-10T12:42:07;13.77;;;8.40;;
36443;SDS011;24692;45.642;13.806;2023-05-10T12:44:33;11.00;;;7.97;;
36443;SDS011;24692;45.642;13.806;2023-05-10T12:46:59;10.10;;;8.17;;
36443;SDS011;24692;45.642;13.806;2023-05-10T12:49:26;13.00;;;8.90;;
36443;SDS011;24692;45.642;13.806;2023-05-10T12:51:54;11.13;;;7.93;;
36443;SDS011;24692;45.642;13.806;2023-05-10T12:54:19;12.73;;;8.67;;
36443;SDS011;24692;45.642;13.806;2023-05-10T12:56:45;15.47;;;9.83;;
36443;SDS011;24692;45.642;13.806;2023-05-10T12:59:14;12.03;;;8.37;;
36443;SDS011;24692;45.642;13.806;2023-05-10T13:02:01;10.80;;;8.10;;
36443;SDS011;24692;45.642;13.806;2023-05-10T13:04:34;9.93;;;7.50;;
36443;SDS011;24692;45.642;13.806;2023-05-10T13:06:59;8.23;;;7.33;;
36443;SDS011;24692;45.642;13.806;2023-05-10T13:09:26;9.43;;;7.93;;
36443;SDS011;24692;45.642;13.806;2023-05-10T13:11:54;11.10;;;8.27;;
36443;SDS011;24692;45.642;13.806;2023-05-10T13:14:20;8.27;;;6.87;;
36443;SDS011;24692;45.642;13.806;2023-05-10T13:16:47;14.27;;;7.83;;
36443;SDS011;24692;45.642;13.806;2023-05-10T13:19:13;10.60;;;7.60;;
36443;SDS011;24692;45.642;13.806;2023-05-10T13:21:39;8.47;;;7.37;;
36443;SDS011;24692;45.642;13.806;2023-05-10T13:24:09;8.97;;;7.77;;
36443;SDS011;24692;45.642;13.806;2023-05-10T13:26:36;9.43;;;7.70;;
36443;SDS011;24692;45.642;13.806;2023-05-10T13:29:02;14.33;;;7.90;;
36443;SDS011;24692;45.642;13.806;2023-05-10T13:31:28;9.33;;;7.70;;
36443;SDS011;24692;45.642;13.806;2023-05-10T13:33:54;10.93;;;8.00;;
36443;SDS011;24692;45.642;13.806;2023-05-10T13:36:20;10.27;;;7.23;;
36443;SDS011;24692;45.642;13.806;2023-05-10T13:38:45;8.60;;;7.43;;
36443;SDS011;24692;45.642;13.806;2023-05-10T13:41:11;8.57;;;7.67;;
36443;SDS011;24692;45.642;13.806;2023-05-10T13:43:37;12.30;;;8.30;;
36443;SDS011;24692;45.642;13.806;2023-05-10T13:46:02;10.40;;;7.73;;
36443;SDS011;24692;45.642;13.806;2023-05-10T13:48:28;8.03;;;7.03;;
36443;SDS011;24692;45.642;13.806;2023-05-10T13:50:54;10.07;;;8.30;;
36443;SDS011;24692;45.642;13.806;2023-05-10T13:53:19;32.67;;;10.20;;
36443;SDS011;24692;45.642;13.806;2023-05-10T13:55:45;23.63;;;9.07;;
36443;SDS011;24692;45.642;13.806;2023-05-10T13:58:12;18.53;;;9.37;;
36443;SDS011;24692;45.642;13.806;2023-05-10T14:00:37;18.33;;;9.53;;
36443;SDS011;24692;45.642;13.806;2023-05-10T14:03:03;11.13;;;9.07;;
36443;SDS011;24692;45.642;13.806;2023-05-10T14:05:30;11.23;;;8.17;;
36443;SDS011;24692;45.642;13.806;2023-05-10T14:07:55;9.27;;;7.37;;
36443;SDS011;24692;45.642;13.806;2023-05-10T14:10:22;11.93;;;8.00;;
36443;SDS011;24692;45.642;13.806;2023-05-10T14:12:47;9.17;;;8.10;;
36443;SDS011;24692;45.642;13.806;2023-05-10T14:15:13;12.03;;;8.60;;
36443;SDS011;24692;45.642;13.806;2023-05-10T14:17:39;10.17;;;8.30;;
36443;SDS011;24692;45.642;13.806;2023-05-10T14:20:04;10.47;;;9.33;;
36443;SDS011;24692;45.642;13.806;2023-05-10T14:22:30;10.30;;;8.57;;
36443;SDS011;24692;45.642;13.806;2023-05-10T14:24:56;10.00;;;8.10;;
36443;SDS011;24692;45.642;13.806;2023-05-10T14:27:22;10.67;;;8.87;;
36443;SDS011;24692;45.642;13.806;2023-05-10T14:29:48;10.83;;;9.27;;
36443;SDS011;24692;45.642;13.806;2023-05-10T14:32:13;11.10;;;9.10;;
36443;SDS011;24692;45.642;13.806;2023-05-10T14:34:39;12.57;;;9.70;;
36443;SDS011;24692;45.642;13.806;2023-05-10T14:37:04;11.27;;;9.50;;
36443;SDS011;24692;45.642;13.806;2023-05-10T14:39:30;11.10;;;8.70;;
36443;SDS011;24692;45.642;13.806;2023-05-10T14:41:56;10.70;;;9.20;;
36443;SDS011;24692;45.642;13.806;2023-05-10T14:44:23;10.53;;;8.80;;
36443;SDS011;24692;45.642;13.806;2023-05-10T14:46:49;10.73;;;9.17;;
36443;SDS011;24692;45.642;13.806;2023-05-10T14:49:14;8.57;;;7.67;;
36443;SDS011;24692;45.642;13.806;2023-05-10T14:51:40;10.80;;;8.53;;
36443;SDS011;24692;45.642;13.806;2023-05-10T14:54:06;9.47;;;8.47;;
36443;SDS011;24692;45.642;13.806;2023-05-10T14:56:32;9.00;;;8.10;;
36443;SDS011;24692;45.642;13.806;2023-05-10T14:58:57;9.83;;;8.83;;
36443;SDS011;24692;45.642;13.806;2023-05-10T15:01:24;9.30;;;8.13;;